createdAt,value
2022-10-03T00:00:00.680Z,1006.52
2022-10-03T00:01:00.664Z,1006.49
2022-10-03T00:02:00.686Z,1006.56
2022-10-03T00:03:00.667Z,1006.55
2022-10-03T00:04:00.621Z,1006.52
2022-10-03T00:05:00.631Z,1006.51
2022-10-03T00:06:00.592Z,1006.55
2022-10-03T00:07:00.591Z,1006.58
2022-10-03T00:08:00.571Z,1006.60
2022-10-03T00:09:00.561Z,1006.60
2022-10-03T00:10:00.552Z,1006.58
2022-10-03T00:11:00.573Z,1006.61
2022-10-03T00:12:00.531Z,1006.66
2022-10-03T00:13:00.521Z,1006.66
2022-10-03T00:14:00.502Z,1006.63
2022-10-03T00:15:00.499Z,1006.66
2022-10-03T00:16:00.532Z,1006.65
2022-10-03T00:17:00.492Z,1006.59
2022-10-03T00:18:00.460Z,1006.63
2022-10-03T00:19:00.450Z,1006.58
2022-10-03T00:20:00.432Z,1006.57
2022-10-03T00:21:00.421Z,1006.56
2022-10-03T00:22:00.411Z,1006.58
2022-10-03T00:23:00.422Z,1006.62
2022-10-03T00:24:00.389Z,1006.59
2022-10-03T00:25:00.382Z,1006.60
2022-10-03T00:26:00.361Z,1006.62
2022-10-03T00:27:00.361Z,1006.67
2022-10-03T00:28:00.387Z,1006.66
2022-10-03T00:29:00.351Z,1006.71
2022-10-03T00:30:00.322Z,1006.66
2022-10-03T00:31:00.367Z,1006.61
2022-10-03T00:32:00.296Z,1006.65
2022-10-03T00:33:00.292Z,1006.71
2022-10-03T00:34:00.302Z,1006.69
2022-10-03T00:35:00.261Z,1006.62
2022-10-03T00:36:00.252Z,1006.65
2022-10-03T00:37:00.241Z,1006.62
2022-10-03T00:38:00.232Z,1006.63
2022-10-03T00:39:00.221Z,1006.63
2022-10-03T00:40:00.224Z,1006.62
2022-10-03T00:41:00.199Z,1006.60
2022-10-03T00:42:00.186Z,1006.63
2022-10-03T00:43:00.171Z,1006.60
2022-10-03T00:44:00.153Z,1006.64
2022-10-03T00:45:00.162Z,1006.61
2022-10-03T00:46:00.154Z,1006.64
2022-10-03T00:47:00.229Z,1006.64
2022-10-03T00:48:00.112Z,1006.63
2022-10-03T00:49:00.103Z,1006.65
2022-10-03T00:50:00.103Z,1006.68
2022-10-03T00:51:00.085Z,1006.66
2022-10-03T00:52:00.090Z,1006.67
2022-10-03T00:53:00.074Z,1006.66
2022-10-03T00:54:00.042Z,1006.63
2022-10-03T00:55:00.031Z,1006.61
2022-10-03T00:56:00.020Z,1006.64
2022-10-03T00:57:00.013Z,1006.65
2022-10-03T00:58:00.021Z,1006.70
2022-10-03T00:58:59.991Z,1006.67
2022-10-03T00:59:59.972Z,1006.65
2022-10-03T01:00:59.999Z,1006.64
2022-10-03T01:02:00.015Z,1006.67
2022-10-03T01:02:59.961Z,1006.71
2022-10-03T01:03:59.934Z,1006.68
2022-10-03T01:04:59.926Z,1006.70
2022-10-03T01:05:59.902Z,1006.75
2022-10-03T01:06:59.893Z,1006.78
2022-10-03T01:07:59.883Z,1006.78
2022-10-03T01:08:59.892Z,1006.77
2022-10-03T01:09:59.860Z,1006.78
2022-10-03T01:10:59.853Z,1006.82
2022-10-03T01:11:59.840Z,1006.79
2022-10-03T01:12:59.831Z,1006.78
2022-10-03T01:13:59.812Z,1006.82
2022-10-03T01:14:59.822Z,1006.83
2022-10-03T01:15:59.827Z,1006.89
2022-10-03T01:16:59.782Z,1006.90
2022-10-03T01:17:59.771Z,1006.88
2022-10-03T01:18:59.762Z,1006.87
2022-10-03T01:19:59.771Z,1006.90
2022-10-03T01:20:59.733Z,1006.88
2022-10-03T01:21:59.722Z,1006.90
2022-10-03T01:22:59.712Z,1006.93
2022-10-03T01:23:59.701Z,1006.91
2022-10-03T01:24:59.693Z,1006.93
2022-10-03T01:25:59.692Z,1006.96
2022-10-03T01:26:59.671Z,1007.01
2022-10-03T01:27:59.704Z,1007.00
2022-10-03T01:28:59.642Z,1006.93
2022-10-03T01:29:59.632Z,1006.97
2022-10-03T01:30:59.687Z,1006.94
2022-10-03T01:31:59.611Z,1006.98
2022-10-03T01:32:59.601Z,1006.97
2022-10-03T01:33:59.583Z,1006.94
2022-10-03T01:34:59.579Z,1006.95
2022-10-03T01:35:59.563Z,1006.95
2022-10-03T01:36:59.573Z,1006.95
2022-10-03T01:37:59.540Z,1006.92
2022-10-03T01:38:59.532Z,1007.04
2022-10-03T01:39:59.513Z,1007.03
2022-10-03T01:40:59.511Z,1007.03
2022-10-03T01:41:59.492Z,1007.06
2022-10-03T01:42:59.502Z,1007.03
2022-10-03T01:43:59.472Z,1007.05
2022-10-03T01:44:59.460Z,1007.06
2022-10-03T01:45:59.446Z,1007.07
2022-10-03T01:46:59.532Z,1007.06
2022-10-03T01:47:59.423Z,1007.11
2022-10-03T01:48:59.431Z,1007.14
2022-10-03T01:49:59.400Z,1007.09
2022-10-03T01:50:59.393Z,1007.14
2022-10-03T01:51:59.383Z,1007.16
2022-10-03T01:52:59.372Z,1007.09
2022-10-03T01:53:59.374Z,1007.18
2022-10-03T01:54:59.343Z,1007.15
2022-10-03T01:55:59.332Z,1007.16
2022-10-03T01:56:59.323Z,1007.12
2022-10-03T01:57:59.311Z,1007.20
2022-10-03T01:58:59.301Z,1007.19
2022-10-03T01:59:59.302Z,1007.19
2022-10-03T02:00:59.360Z,1007.18
2022-10-03T02:01:59.272Z,1007.25
2022-10-03T02:02:59.253Z,1007.20
2022-10-03T02:03:59.233Z,1007.16
2022-10-03T02:04:59.242Z,1007.21
2022-10-03T02:05:59.232Z,1007.19
2022-10-03T02:06:59.212Z,1007.25
2022-10-03T02:07:59.193Z,1007.27
2022-10-03T02:08:59.188Z,1007.21
2022-10-03T02:09:59.171Z,1007.23
2022-10-03T02:10:59.184Z,1007.30
2022-10-03T02:11:59.142Z,1007.27
2022-10-03T02:12:59.143Z,1007.28
2022-10-03T02:13:59.124Z,1007.35
2022-10-03T02:14:59.112Z,1007.33
2022-10-03T02:15:59.139Z,1007.34
2022-10-03T02:16:59.115Z,1007.33
2022-10-03T02:17:59.081Z,1007.33
2022-10-03T02:18:59.071Z,1007.34
2022-10-03T02:19:59.060Z,1007.32
2022-10-03T02:20:59.049Z,1007.29
2022-10-03T02:21:59.032Z,1007.31
2022-10-03T02:22:59.042Z,1007.32
2022-10-03T02:23:59.021Z,1007.39
2022-10-03T02:24:59.002Z,1007.38
2022-10-03T02:25:58.990Z,1007.37
2022-10-03T02:26:58.981Z,1007.43
2022-10-03T02:27:59.009Z,1007.35
2022-10-03T02:28:58.981Z,1007.37
2022-10-03T02:29:58.943Z,1007.45
2022-10-03T02:30:58.931Z,1007.45
2022-10-03T02:31:58.968Z,1007.38
2022-10-03T02:32:58.912Z,1007.42
2022-10-03T02:33:58.892Z,1007.42
2022-10-03T02:34:58.912Z,1007.43
2022-10-03T02:35:58.872Z,1007.43
2022-10-03T02:36:58.872Z,1007.46
2022-10-03T02:37:58.852Z,1007.42
2022-10-03T02:38:58.854Z,1007.37
2022-10-03T02:39:58.829Z,1007.46
2022-10-03T02:40:58.841Z,1007.43
2022-10-03T02:41:58.803Z,1007.44
2022-10-03T02:42:58.803Z,1007.40
2022-10-03T02:43:58.782Z,1007.35
2022-10-03T02:44:58.773Z,1007.41
2022-10-03T02:45:58.808Z,1007.42
2022-10-03T02:46:58.769Z,1007.40
2022-10-03T02:48:13.749Z,1007.36
2022-10-03T02:48:59.733Z,1007.41
2022-10-03T02:49:58.713Z,1007.40
2022-10-03T02:50:58.710Z,1007.42
2022-10-03T02:51:58.712Z,1007.37
2022-10-03T02:52:58.683Z,1007.43
2022-10-03T02:53:58.671Z,1007.45
2022-10-03T02:54:58.661Z,1007.45
2022-10-03T02:55:58.650Z,1007.43
2022-10-03T02:56:58.641Z,1007.38
2022-10-03T02:57:58.652Z,1007.40
2022-10-03T02:58:58.622Z,1007.44
2022-10-03T02:59:58.602Z,1007.43
2022-10-03T03:00:58.664Z,1007.43
2022-10-03T03:01:58.616Z,1007.43
2022-10-03T03:02:58.571Z,1007.39
2022-10-03T03:03:58.587Z,1007.40
2022-10-03T03:04:58.551Z,1007.41
2022-10-03T03:05:58.541Z,1007.51
2022-10-03T03:06:58.521Z,1007.51
2022-10-03T03:07:58.523Z,1007.60
2022-10-03T03:08:58.522Z,1007.59
2022-10-03T03:09:58.491Z,1007.57
2022-10-03T03:10:58.479Z,1007.58
2022-10-03T03:11:58.470Z,1007.55
2022-10-03T03:12:58.456Z,1007.60
2022-10-03T03:13:58.451Z,1007.59
2022-10-03T03:14:58.450Z,1007.58
2022-10-03T03:15:58.477Z,1007.63
2022-10-03T03:16:58.411Z,1007.64
2022-10-03T03:17:58.401Z,1007.63
2022-10-03T03:18:58.389Z,1007.67
2022-10-03T03:20:05.440Z,1007.62
2022-10-03T03:20:58.360Z,1007.60
2022-10-03T03:21:58.362Z,1007.61
2022-10-03T03:22:58.349Z,1007.67
2022-10-03T03:23:58.340Z,1007.64
2022-10-03T03:24:58.320Z,1007.71
2022-10-03T03:25:58.339Z,1007.70
2022-10-03T03:26:58.300Z,1007.66
2022-10-03T03:27:58.372Z,1007.72
2022-10-03T03:28:58.271Z,1007.67
2022-10-03T03:29:58.269Z,1007.72
2022-10-03T03:30:58.251Z,1007.71
2022-10-03T03:31:58.338Z,1007.67
2022-10-03T03:32:58.228Z,1007.74
2022-10-03T03:33:58.220Z,1007.73
2022-10-03T03:34:58.208Z,1007.71
2022-10-03T03:35:58.200Z,1007.69
2022-10-03T03:36:58.209Z,1007.68
2022-10-03T03:37:58.180Z,1007.69
2022-10-03T03:38:58.160Z,1007.66
2022-10-03T03:39:58.150Z,1007.69
2022-10-03T03:40:58.150Z,1007.69
2022-10-03T03:41:58.130Z,1007.69
2022-10-03T03:42:58.140Z,1007.67
2022-10-03T03:43:58.117Z,1007.68
2022-10-03T03:44:58.098Z,1007.69
2022-10-03T03:45:58.126Z,1007.72
2022-10-03T03:46:58.070Z,1007.73
2022-10-03T03:47:58.062Z,1007.68
2022-10-03T03:48:58.062Z,1007.74
2022-10-03T03:49:58.040Z,1007.76
2022-10-03T03:50:58.040Z,1007.77
2022-10-03T03:51:58.019Z,1007.78
2022-10-03T03:52:58.000Z,1007.75
2022-10-03T03:53:58.018Z,1007.80
2022-10-03T03:54:57.980Z,1007.79
2022-10-03T03:55:57.970Z,1007.81
2022-10-03T03:56:57.950Z,1007.81
2022-10-03T03:57:57.950Z,1007.83
2022-10-03T03:58:57.940Z,1007.83
2022-10-03T03:59:57.940Z,1007.82
2022-10-03T04:00:57.954Z,1007.84
2022-10-03T04:01:57.958Z,1007.86
2022-10-03T04:02:57.890Z,1007.80
2022-10-03T04:03:57.880Z,1007.82
2022-10-03T04:04:57.920Z,1007.81
2022-10-03T04:05:57.859Z,1007.81
2022-10-03T04:06:57.845Z,1007.75
2022-10-03T04:07:57.840Z,1007.76
2022-10-03T04:08:57.820Z,1007.79
2022-10-03T04:09:57.812Z,1007.80
2022-10-03T04:10:57.809Z,1007.81
2022-10-03T04:11:57.789Z,1007.78
2022-10-03T04:12:57.770Z,1007.80
2022-10-03T04:13:57.761Z,1007.81
2022-10-03T04:14:57.761Z,1007.84
2022-10-03T04:15:57.760Z,1007.81
2022-10-03T04:16:57.756Z,1007.82
2022-10-03T04:17:57.720Z,1007.86
2022-10-03T04:18:57.706Z,1007.89
2022-10-03T04:19:57.706Z,1007.93
2022-10-03T04:20:57.681Z,1007.87
2022-10-03T04:21:57.690Z,1007.90
2022-10-03T04:22:57.660Z,1007.90
2022-10-03T04:23:57.649Z,1007.94
2022-10-03T04:24:57.638Z,1007.94
2022-10-03T04:25:57.630Z,1007.95
2022-10-03T04:26:57.610Z,1007.97
2022-10-03T04:27:57.714Z,1008.05
2022-10-03T04:28:57.589Z,1007.97
2022-10-03T04:29:57.581Z,1007.98
2022-10-03T04:30:57.570Z,1008.01
2022-10-03T04:31:57.595Z,1008.06
2022-10-03T04:32:57.550Z,1008.05
2022-10-03T04:33:57.559Z,1007.98
2022-10-03T04:34:57.522Z,1007.99
2022-10-03T04:35:57.511Z,1007.98
2022-10-03T04:36:57.498Z,1008.00
2022-10-03T04:37:57.492Z,1007.92
2022-10-03T04:38:57.470Z,1008.04
2022-10-03T04:39:57.488Z,1007.98
2022-10-03T04:40:57.450Z,1008.01
2022-10-03T04:41:57.439Z,1007.94
2022-10-03T04:42:57.428Z,1008.01
2022-10-03T04:43:57.424Z,1007.98
2022-10-03T04:44:57.409Z,1008.00
2022-10-03T04:45:57.481Z,1007.95
2022-10-03T04:46:57.381Z,1007.92
2022-10-03T04:47:57.370Z,1007.90
2022-10-03T04:48:57.359Z,1007.92
2022-10-03T04:49:57.350Z,1007.88
2022-10-03T04:50:57.344Z,1007.89
2022-10-03T04:51:57.346Z,1007.91
2022-10-03T04:52:57.314Z,1007.86
2022-10-03T04:53:57.300Z,1007.93
2022-10-03T04:54:57.290Z,1007.85
2022-10-03T04:55:57.280Z,1007.84
2022-10-03T04:56:57.280Z,1007.86
2022-10-03T04:57:59.448Z,1007.88
2022-10-03T04:58:58.240Z,1007.88
2022-10-03T04:59:57.238Z,1007.93
2022-10-03T05:00:57.268Z,1007.93
2022-10-03T05:01:57.270Z,1007.89
2022-10-03T05:02:57.212Z,1007.92
2022-10-03T05:03:57.191Z,1007.91
2022-10-03T05:04:57.170Z,1007.96
2022-10-03T05:05:57.169Z,1007.92
2022-10-03T05:06:57.150Z,1007.90
2022-10-03T05:07:57.160Z,1007.99
2022-10-03T05:08:57.130Z,1007.98
2022-10-03T05:09:57.124Z,1007.93
2022-10-03T05:10:57.109Z,1008.00
2022-10-03T05:11:57.101Z,1007.98
2022-10-03T05:12:57.085Z,1007.97
2022-10-03T05:13:57.100Z,1007.96
2022-10-03T05:14:57.060Z,1008.04
2022-10-03T05:15:57.050Z,1007.93
2022-10-03T05:16:57.129Z,1008.01
2022-10-03T05:17:57.030Z,1008.03
2022-10-03T05:18:57.030Z,1007.99
2022-10-03T05:19:57.002Z,1008.04
2022-10-03T05:20:56.991Z,1007.97
2022-10-03T05:21:56.979Z,1008.05
2022-10-03T05:22:56.960Z,1007.99
2022-10-03T05:23:56.960Z,1008.05
2022-10-03T05:24:56.970Z,1008.11
2022-10-03T05:26:10.813Z,1008.08
2022-10-03T05:26:57.920Z,1008.09
2022-10-03T05:27:56.953Z,1008.14
2022-10-03T05:28:56.899Z,1008.16
2022-10-03T05:29:56.892Z,1008.14
2022-10-03T05:30:56.898Z,1008.18
2022-10-03T05:31:56.894Z,1008.18
2022-10-03T05:32:56.854Z,1008.20
2022-10-03T05:33:56.840Z,1008.23
2022-10-03T05:34:56.830Z,1008.21
2022-10-03T05:35:56.821Z,1008.24
2022-10-03T05:36:56.820Z,1008.28
2022-10-03T05:37:56.800Z,1008.23
2022-10-03T05:38:56.780Z,1008.24
2022-10-03T05:39:56.778Z,1008.25
2022-10-03T05:40:56.760Z,1008.27
2022-10-03T05:42:20.867Z,1008.31
2022-10-03T05:42:57.739Z,1008.29
2022-10-03T05:43:56.730Z,1008.32
2022-10-03T05:44:56.711Z,1008.33
2022-10-03T05:45:56.726Z,1008.26
2022-10-03T05:46:56.691Z,1008.29
2022-10-03T05:47:56.709Z,1008.30
2022-10-03T05:48:56.670Z,1008.30
2022-10-03T05:49:56.660Z,1008.32
2022-10-03T05:50:56.649Z,1008.30
2022-10-03T05:51:56.639Z,1008.29
2022-10-03T05:52:56.620Z,1008.26
2022-10-03T05:53:56.660Z,1008.30
2022-10-03T05:54:56.600Z,1008.29
2022-10-03T05:55:56.590Z,1008.29
2022-10-03T05:56:56.582Z,1008.28
2022-10-03T05:57:56.569Z,1008.21
2022-10-03T05:58:56.559Z,1008.24
2022-10-03T05:59:56.580Z,1008.24
2022-10-03T06:00:56.670Z,1008.26
2022-10-03T06:01:56.534Z,1008.28
2022-10-03T06:02:56.613Z,1008.30
2022-10-03T06:03:56.500Z,1008.28
2022-10-03T06:04:56.489Z,1008.30
2022-10-03T06:05:56.490Z,1008.29
2022-10-03T06:06:56.459Z,1008.33
2022-10-03T06:07:56.460Z,1008.32
2022-10-03T06:08:56.440Z,1008.31
2022-10-03T06:09:56.430Z,1008.31
2022-10-03T06:10:56.440Z,1008.28
2022-10-03T06:11:56.409Z,1008.25
2022-10-03T06:12:56.391Z,1008.28
2022-10-03T06:13:56.380Z,1008.28
2022-10-03T06:14:56.369Z,1008.25
2022-10-03T06:15:56.389Z,1008.30
2022-10-03T06:16:56.369Z,1008.31
2022-10-03T06:17:56.341Z,1008.33
2022-10-03T06:18:56.320Z,1008.34
2022-10-03T06:19:56.319Z,1008.37
2022-10-03T06:20:56.304Z,1008.36
2022-10-03T06:21:56.330Z,1008.35
2022-10-03T06:22:56.280Z,1008.36
2022-10-03T06:23:56.268Z,1008.41
2022-10-03T06:24:56.250Z,1008.36
2022-10-03T06:25:56.249Z,1008.36
2022-10-03T06:26:56.230Z,1008.41
2022-10-03T06:27:56.270Z,1008.40
2022-10-03T06:28:56.210Z,1008.37
2022-10-03T06:29:56.200Z,1008.34
2022-10-03T06:30:56.233Z,1008.40
2022-10-03T06:31:56.179Z,1008.39
2022-10-03T06:32:56.171Z,1008.40
2022-10-03T06:33:56.170Z,1008.42
2022-10-03T06:34:56.140Z,1008.39
2022-10-03T06:35:56.130Z,1008.40
2022-10-03T06:36:56.119Z,1008.38
2022-10-03T06:37:56.109Z,1008.40
2022-10-03T06:38:56.120Z,1008.44
2022-10-03T06:39:56.090Z,1008.41
2022-10-03T06:40:56.077Z,1008.41
2022-10-03T06:41:56.062Z,1008.47
2022-10-03T06:42:56.052Z,1008.41
2022-10-03T06:43:56.113Z,1008.45
2022-10-03T06:44:56.041Z,1008.48
2022-10-03T06:45:56.090Z,1008.45
2022-10-03T06:46:56.002Z,1008.42
2022-10-03T06:47:55.991Z,1008.50
2022-10-03T06:48:55.986Z,1008.44
2022-10-03T06:49:55.991Z,1008.42
2022-10-03T06:50:55.959Z,1008.52
2022-10-03T06:51:55.951Z,1008.52
2022-10-03T06:52:55.932Z,1008.47
2022-10-03T06:53:55.922Z,1008.42
2022-10-03T06:54:55.912Z,1008.51
2022-10-03T06:55:55.922Z,1008.46
2022-10-03T06:56:55.882Z,1008.48
2022-10-03T06:57:55.880Z,1008.49
2022-10-03T06:58:55.863Z,1008.50
2022-10-03T06:59:55.884Z,1008.50
2022-10-03T07:00:56.050Z,1008.52
2022-10-03T07:01:55.907Z,1008.50
2022-10-03T07:02:55.895Z,1008.50
2022-10-03T07:03:55.812Z,1008.53
2022-10-03T07:04:55.793Z,1008.54
2022-10-03T07:05:55.823Z,1008.59
2022-10-03T07:06:55.792Z,1008.61
2022-10-03T07:07:55.766Z,1008.55
2022-10-03T07:08:55.753Z,1008.63
2022-10-03T07:09:55.743Z,1008.60
2022-10-03T07:10:55.727Z,1008.60
2022-10-03T07:11:55.742Z,1008.58
2022-10-03T07:12:55.705Z,1008.57
2022-10-03T07:13:55.694Z,1008.65
2022-10-03T07:14:55.687Z,1008.68
2022-10-03T07:16:25.675Z,1008.68
2022-10-03T07:16:56.746Z,1008.73
2022-10-03T07:17:55.648Z,1008.77
2022-10-03T07:18:55.645Z,1008.77
2022-10-03T07:19:55.625Z,1008.69
2022-10-03T07:20:55.615Z,1008.77
2022-10-03T07:21:55.606Z,1008.79
2022-10-03T07:22:55.616Z,1008.80
2022-10-03T07:23:55.577Z,1008.80
2022-10-03T07:24:55.566Z,1008.84
2022-10-03T07:25:55.557Z,1008.78
2022-10-03T07:26:55.549Z,1008.81
2022-10-03T07:27:55.570Z,1008.89
2022-10-03T07:28:55.577Z,1008.84
2022-10-03T07:29:55.507Z,1008.86
2022-10-03T07:30:55.542Z,1008.82
2022-10-03T07:31:55.487Z,1008.89
2022-10-03T07:32:55.477Z,1008.91
2022-10-03T07:33:55.501Z,1008.93
2022-10-03T07:34:55.499Z,1008.86
2022-10-03T07:35:55.440Z,1008.91
2022-10-03T07:36:55.429Z,1008.89
2022-10-03T07:37:55.417Z,1008.95
2022-10-03T07:38:55.411Z,1009.00
2022-10-03T07:39:55.388Z,1008.92
2022-10-03T07:40:55.408Z,1009.00
2022-10-03T07:41:55.369Z,1008.95
2022-10-03T07:42:55.368Z,1008.93
2022-10-03T07:43:55.355Z,1009.04
2022-10-03T07:44:55.340Z,1009.00
2022-10-03T07:45:55.353Z,1009.01
2022-10-03T07:46:55.339Z,1009.05
2022-10-03T07:47:55.298Z,1009.05
2022-10-03T07:48:55.290Z,1009.01
2022-10-03T07:49:55.279Z,1008.98
2022-10-03T07:50:55.460Z,1008.99
2022-10-03T07:51:55.259Z,1008.99
2022-10-03T07:52:55.271Z,1008.98
2022-10-03T07:53:55.239Z,1009.06
2022-10-03T07:54:55.230Z,1009.05
2022-10-03T07:55:55.210Z,1009.03
2022-10-03T07:56:55.200Z,1009.02
2022-10-03T07:57:55.188Z,1009.07
2022-10-03T07:58:55.199Z,1009.07
2022-10-03T07:59:55.184Z,1009.05
2022-10-03T08:00:55.151Z,1009.06
2022-10-03T08:01:55.141Z,1009.11
2022-10-03T08:02:55.178Z,1009.16
2022-10-03T08:03:55.213Z,1009.13
2022-10-03T08:04:55.111Z,1009.16
2022-10-03T08:05:55.091Z,1009.16
2022-10-03T08:06:55.089Z,1009.16
2022-10-03T08:07:55.071Z,1009.20
2022-10-03T08:08:55.063Z,1009.14
2022-10-03T08:09:55.071Z,1009.20
2022-10-03T08:10:55.042Z,1009.19
2022-10-03T08:11:55.022Z,1009.27
2022-10-03T08:12:55.022Z,1009.25
2022-10-03T08:13:55.006Z,1009.28
2022-10-03T08:14:55.000Z,1009.33
2022-10-03T08:15:55.060Z,1009.32
2022-10-03T08:16:54.992Z,1009.35
2022-10-03T08:17:54.965Z,1009.37
2022-10-03T08:18:54.950Z,1009.38
2022-10-03T08:19:54.932Z,1009.41
2022-10-03T08:20:54.951Z,1009.40
2022-10-03T08:21:54.912Z,1009.35
2022-10-03T08:22:54.903Z,1009.39
2022-10-03T08:23:54.893Z,1009.42
2022-10-03T08:24:57.358Z,1009.40
2022-10-03T08:25:54.863Z,1009.42
2022-10-03T08:26:54.902Z,1009.41
2022-10-03T08:27:54.879Z,1009.45
2022-10-03T08:28:54.833Z,1009.46
2022-10-03T08:29:54.826Z,1009.45
2022-10-03T08:30:54.861Z,1009.53
2022-10-03T08:31:54.793Z,1009.53
2022-10-03T08:32:54.824Z,1009.54
2022-10-03T08:33:54.775Z,1009.54
2022-10-03T08:34:54.775Z,1009.58
2022-10-03T08:35:54.753Z,1009.58
2022-10-03T08:36:54.743Z,1009.58
2022-10-03T08:37:54.733Z,1009.60
2022-10-03T08:38:54.744Z,1009.56
2022-10-03T08:39:54.709Z,1009.63
2022-10-03T08:40:54.694Z,1009.56
2022-10-03T08:41:54.684Z,1009.51
2022-10-03T08:42:54.674Z,1009.52
2022-10-03T08:43:54.663Z,1009.57
2022-10-03T08:44:54.664Z,1009.61
2022-10-03T08:45:54.634Z,1009.57
2022-10-03T08:46:54.662Z,1009.56
2022-10-03T08:47:54.613Z,1009.58
2022-10-03T08:48:54.606Z,1009.48
2022-10-03T08:49:54.618Z,1009.54
2022-10-03T08:50:54.584Z,1009.53
2022-10-03T08:51:54.566Z,1009.51
2022-10-03T08:52:54.555Z,1009.56
2022-10-03T08:53:54.544Z,1009.52
2022-10-03T08:54:54.535Z,1009.54
2022-10-03T08:55:54.545Z,1009.55
2022-10-03T08:56:54.515Z,1009.50
2022-10-03T08:57:54.518Z,1009.51
2022-10-03T08:58:54.494Z,1009.48
2022-10-03T08:59:54.477Z,1009.60
2022-10-03T09:00:54.466Z,1009.49
2022-10-03T09:01:54.530Z,1009.53
2022-10-03T09:03:13.968Z,1009.47
2022-10-03T09:03:55.458Z,1009.37
2022-10-03T09:04:54.429Z,1009.40
2022-10-03T09:05:54.406Z,1009.44
2022-10-03T09:07:16.159Z,1009.50
2022-10-03T09:07:55.386Z,1009.55
2022-10-03T09:08:54.377Z,1009.45
2022-10-03T09:09:54.365Z,1009.41
2022-10-03T09:10:54.356Z,1009.39
2022-10-03T09:11:54.346Z,1009.43
2022-10-03T09:12:54.387Z,1009.38
2022-10-03T09:13:54.327Z,1009.45
2022-10-03T09:14:54.317Z,1009.44
2022-10-03T09:15:54.346Z,1009.43
2022-10-03T09:16:54.290Z,1009.49
2022-10-03T09:17:54.268Z,1009.46
2022-10-03T09:18:54.278Z,1009.49
2022-10-03T09:19:54.248Z,1009.49
2022-10-03T09:21:01.348Z,1009.48
2022-10-03T09:21:54.230Z,1009.46
2022-10-03T09:22:54.229Z,1009.50
2022-10-03T09:23:54.238Z,1009.48
2022-10-03T09:24:54.205Z,1009.48
2022-10-03T09:25:54.181Z,1009.46
2022-10-03T09:26:54.171Z,1009.48
2022-10-03T09:27:54.255Z,1009.45
2022-10-03T09:28:54.150Z,1009.48
2022-10-03T09:29:54.169Z,1009.45
2022-10-03T09:30:54.203Z,1009.44
2022-10-03T09:31:54.198Z,1009.43
2022-10-03T09:32:54.111Z,1009.40
2022-10-03T09:33:54.094Z,1009.36
2022-10-03T09:34:54.083Z,1009.46
2022-10-03T09:35:54.081Z,1009.46
2022-10-03T09:36:54.062Z,1009.46
2022-10-03T09:37:54.042Z,1009.48
2022-10-03T09:38:54.032Z,1009.43
2022-10-03T09:39:54.022Z,1009.48
2022-10-03T09:40:54.033Z,1009.45
2022-10-03T09:41:53.993Z,1009.49
2022-10-03T09:42:53.992Z,1009.43
2022-10-03T09:43:53.974Z,1009.42
2022-10-03T09:44:53.973Z,1009.51
2022-10-03T09:45:53.944Z,1009.51
2022-10-03T09:46:54.017Z,1009.48
2022-10-03T09:47:53.924Z,1009.45
2022-10-03T09:48:53.913Z,1009.42
2022-10-03T09:49:53.902Z,1009.47
2022-10-03T09:50:53.894Z,1009.45
2022-10-03T09:51:53.874Z,1009.43
2022-10-03T09:52:53.874Z,1009.50
2022-10-03T09:53:53.863Z,1009.44
2022-10-03T09:54:53.853Z,1009.51
2022-10-03T09:55:53.824Z,1009.51
2022-10-03T09:56:53.825Z,1009.48
2022-10-03T09:57:53.825Z,1009.47
2022-10-03T09:58:53.795Z,1009.53
2022-10-03T09:59:53.784Z,1009.47
2022-10-03T10:00:53.807Z,1009.53
2022-10-03T10:01:53.755Z,1009.53
2022-10-03T10:02:53.745Z,1009.54
2022-10-03T10:03:53.819Z,1009.53
2022-10-03T10:04:55.663Z,1009.47
2022-10-03T10:05:53.713Z,1009.47
2022-10-03T10:06:53.705Z,1009.50
2022-10-03T10:07:53.686Z,1009.44
2022-10-03T10:08:53.677Z,1009.43
2022-10-03T10:09:53.684Z,1009.44
2022-10-03T10:10:53.656Z,1009.42
2022-10-03T10:11:53.645Z,1009.46
2022-10-03T10:12:53.647Z,1009.45
2022-10-03T10:14:07.302Z,1009.49
2022-10-03T10:14:54.700Z,1009.48
2022-10-03T10:15:53.669Z,1009.49
2022-10-03T10:16:53.916Z,1009.47
2022-10-03T10:17:53.567Z,1009.45
2022-10-03T10:18:53.568Z,1009.48
2022-10-03T10:19:53.549Z,1009.45
2022-10-03T10:20:53.558Z,1009.43
2022-10-03T10:21:53.537Z,1009.43
2022-10-03T10:22:53.517Z,1009.39
2022-10-03T10:23:53.583Z,1009.41
2022-10-03T10:24:53.502Z,1009.37
2022-10-03T10:25:53.509Z,1009.42
2022-10-03T10:26:53.468Z,1009.33
2022-10-03T10:27:53.494Z,1009.33
2022-10-03T10:28:53.448Z,1009.31
2022-10-03T10:29:53.429Z,1009.28
2022-10-03T10:30:53.429Z,1009.29
2022-10-03T10:31:53.468Z,1009.28
2022-10-03T10:32:53.408Z,1009.29
2022-10-03T10:33:53.399Z,1009.27
2022-10-03T10:34:53.381Z,1009.21
2022-10-03T10:35:53.359Z,1009.23
2022-10-03T10:36:53.364Z,1009.26
2022-10-03T10:37:53.390Z,1009.29
2022-10-03T10:38:53.333Z,1009.30
2022-10-03T10:39:53.330Z,1009.25
2022-10-03T10:40:53.313Z,1009.28
2022-10-03T10:41:53.299Z,1009.27
2022-10-03T10:42:53.291Z,1009.29
2022-10-03T10:43:53.301Z,1009.27
2022-10-03T10:44:53.272Z,1009.29
2022-10-03T10:45:53.253Z,1009.27
2022-10-03T10:46:53.272Z,1009.23
2022-10-03T10:47:53.240Z,1009.23
2022-10-03T10:48:53.222Z,1009.23
2022-10-03T10:49:53.239Z,1009.21
2022-10-03T10:50:53.202Z,1009.27
2022-10-03T10:51:53.182Z,1009.25
2022-10-03T10:52:53.183Z,1009.27
2022-10-03T10:53:53.171Z,1009.24
2022-10-03T10:54:53.154Z,1009.24
2022-10-03T10:55:53.162Z,1009.21
2022-10-03T10:56:53.133Z,1009.26
2022-10-03T10:57:53.114Z,1009.25
2022-10-03T10:58:53.112Z,1009.23
2022-10-03T10:59:53.095Z,1009.19
2022-10-03T11:00:53.129Z,1009.14
2022-10-03T11:01:53.096Z,1009.24
2022-10-03T11:02:53.064Z,1009.25
2022-10-03T11:03:53.054Z,1009.27
2022-10-03T11:04:53.109Z,1009.19
2022-10-03T11:05:53.024Z,1009.19
2022-10-03T11:06:53.024Z,1009.15
2022-10-03T11:07:54.190Z,1009.14
2022-10-03T11:08:52.995Z,1009.17
2022-10-03T11:09:52.975Z,1009.21
2022-10-03T11:10:52.974Z,1009.22
2022-10-03T11:11:52.954Z,1009.16
2022-10-03T11:12:52.947Z,1009.22
2022-10-03T11:13:52.966Z,1009.25
2022-10-03T11:14:52.925Z,1009.20
2022-10-03T11:15:52.927Z,1009.21
2022-10-03T11:16:52.973Z,1009.18
2022-10-03T11:17:52.887Z,1009.23
2022-10-03T11:18:52.884Z,1009.18
2022-10-03T11:19:52.927Z,1009.13
2022-10-03T11:20:52.897Z,1009.11
2022-10-03T11:21:52.855Z,1009.11
2022-10-03T11:22:52.836Z,1009.06
2022-10-03T11:23:52.826Z,1009.12
2022-10-03T11:24:52.807Z,1009.11
2022-10-03T11:25:52.818Z,1009.13
2022-10-03T11:26:52.789Z,1009.08
2022-10-03T11:27:52.822Z,1009.07
2022-10-03T11:28:52.759Z,1009.02
2022-10-03T11:29:52.757Z,1009.03
2022-10-03T11:30:52.738Z,1009.05
2022-10-03T11:31:52.830Z,1009.03
2022-10-03T11:32:52.717Z,1009.00
2022-10-03T11:33:52.716Z,1009.03
2022-10-03T11:34:52.698Z,1008.97
2022-10-03T11:35:52.689Z,1008.94
2022-10-03T11:36:52.678Z,1008.98
2022-10-03T11:37:52.687Z,1008.94
2022-10-03T11:38:52.651Z,1009.06
2022-10-03T11:39:52.644Z,1008.94
2022-10-03T11:40:52.630Z,1008.95
2022-10-03T11:41:52.610Z,1008.96
2022-10-03T11:42:52.599Z,1008.97
2022-10-03T11:43:52.620Z,1009.01
2022-10-03T11:44:52.584Z,1008.97
2022-10-03T11:45:52.634Z,1008.93
2022-10-03T11:46:52.560Z,1008.92
2022-10-03T11:47:52.543Z,1008.95
2022-10-03T11:48:52.532Z,1008.93
2022-10-03T11:49:52.543Z,1008.94
2022-10-03T11:50:52.510Z,1008.88
2022-10-03T11:51:53.770Z,1008.94
2022-10-03T11:52:52.482Z,1008.95
2022-10-03T11:53:57.093Z,1008.95
2022-10-03T11:54:53.471Z,1008.92
2022-10-03T11:55:52.453Z,1008.94
2022-10-03T11:56:52.433Z,1008.92
2022-10-03T11:57:52.431Z,1008.95
2022-10-03T11:58:52.412Z,1008.91
2022-10-03T11:59:52.402Z,1008.89
2022-10-03T12:00:52.414Z,1008.95
2022-10-03T12:01:52.454Z,1008.96
2022-10-03T12:02:52.533Z,1008.91
2022-10-03T12:03:52.368Z,1008.90
2022-10-03T12:04:52.342Z,1008.92